Terminal Aerodrome Forecast
Issued by NWS

Home | Current Version | Previous Version | Text Only | Print | Product List | Glossary On
Versions: 1 2 3 4 5 6 7 8 9 10 11 12 13 14 15 16 17 18 19 20 21 22
000
FTUS46 KPDT 262300
TAFPSC
TAF
KPSC 262331Z 2700/2724 VRB04KT 3SM BR OVC004
     FM270300 36004KT 1SM BR OVC004
     FM270800 36003KT 1/2SM FG OVC002
     FM271900 29003KT 3SM BR BKN005=

USA.gov is the U.S. government's official web portal to all federal, state and local government web resources and services.